createdAt,value
2022-12-17T00:00:15.150Z,957.67
2022-12-17T00:01:15.167Z,957.68
2022-12-17T00:02:16.505Z,957.71
2022-12-17T00:03:15.638Z,957.67
2022-12-17T00:04:20.454Z,957.70
2022-12-17T00:05:15.015Z,957.70
2022-12-17T00:06:15.113Z,957.68
2022-12-17T00:07:15.076Z,957.71
2022-12-17T00:08:16.130Z,957.70
2022-12-17T00:09:16.808Z,957.76
2022-12-17T00:10:15.055Z,957.76
2022-12-17T00:11:15.162Z,957.81
2022-12-17T00:12:15.917Z,957.80
2022-12-17T00:13:14.897Z,957.80
2022-12-17T00:14:15.861Z,957.80
2022-12-17T00:15:15.235Z,957.81
2022-12-17T00:16:15.401Z,957.85
2022-12-17T00:17:15.617Z,957.88
2022-12-17T00:18:14.901Z,957.89
2022-12-17T00:19:15.437Z,957.90
2022-12-17T00:20:15.246Z,957.91
2022-12-17T00:21:14.790Z,957.89
2022-12-17T00:22:16.718Z,957.91
2022-12-17T00:23:14.768Z,957.97
2022-12-17T00:24:15.664Z,957.97
2022-12-17T00:25:17.070Z,957.96
2022-12-17T00:26:15.118Z,958.03
2022-12-17T00:27:17.767Z,958.01
2022-12-17T00:28:14.999Z,958.03
2022-12-17T00:29:14.656Z,958.00
2022-12-17T00:30:15.860Z,958.07
2022-12-17T00:31:14.878Z,958.11
2022-12-17T00:32:14.686Z,958.08
2022-12-17T00:33:15.925Z,958.09
2022-12-17T00:34:15.455Z,958.08
2022-12-17T00:35:14.676Z,958.15
2022-12-17T00:36:14.623Z,958.19
2022-12-17T00:37:14.758Z,958.21
2022-12-17T00:38:14.876Z,958.18
2022-12-17T00:39:15.414Z,958.19
2022-12-17T00:40:14.633Z,958.20
2022-12-17T00:41:14.484Z,958.21
2022-12-17T00:42:14.495Z,958.16
2022-12-17T00:43:14.761Z,958.22
2022-12-17T00:44:14.756Z,958.19
2022-12-17T00:45:14.666Z,958.22
2022-12-17T00:46:14.760Z,958.24
2022-12-17T00:47:14.655Z,958.26
2022-12-17T00:48:14.883Z,958.27
2022-12-17T00:49:14.383Z,958.30
2022-12-17T00:50:14.562Z,958.31
2022-12-17T00:51:14.502Z,958.32
2022-12-17T00:52:14.350Z,958.29
2022-12-17T00:53:16.309Z,958.28
2022-12-17T00:54:14.569Z,958.30
2022-12-17T00:55:14.502Z,958.35
2022-12-17T00:56:14.709Z,958.34
2022-12-17T00:57:14.419Z,958.40
2022-12-17T00:58:14.318Z,958.37
2022-12-17T00:59:14.364Z,958.35
2022-12-17T01:00:14.447Z,958.35
2022-12-17T01:01:14.911Z,958.33
2022-12-17T01:02:14.764Z,958.37
2022-12-17T01:03:14.441Z,958.42
2022-12-17T01:04:14.736Z,958.42
2022-12-17T01:05:14.277Z,958.38
2022-12-17T01:06:14.504Z,958.43
2022-12-17T01:07:14.247Z,958.43
2022-12-17T01:08:14.177Z,958.46
2022-12-17T01:09:14.255Z,958.46
2022-12-17T01:10:14.976Z,958.49
2022-12-17T01:11:14.093Z,958.47
2022-12-17T01:12:14.363Z,958.46
2022-12-17T01:13:14.470Z,958.52
2022-12-17T01:14:15.048Z,958.55
2022-12-17T01:15:14.153Z,958.55
2022-12-17T01:16:14.499Z,958.53
2022-12-17T01:17:15.123Z,958.56
2022-12-17T01:18:14.332Z,958.59
2022-12-17T01:19:15.074Z,958.60
2022-12-17T01:20:15.180Z,958.62
2022-12-17T01:21:14.107Z,958.64
2022-12-17T01:22:13.955Z,958.58
2022-12-17T01:23:14.092Z,958.66
2022-12-17T01:24:13.943Z,958.65
2022-12-17T01:25:14.033Z,958.67
2022-12-17T01:26:13.848Z,958.63
2022-12-17T01:27:15.700Z,958.66
2022-12-17T01:28:13.833Z,958.64
2022-12-17T01:29:13.894Z,958.63
2022-12-17T01:30:14.893Z,958.67
2022-12-17T01:31:14.931Z,958.65
2022-12-17T01:32:13.758Z,958.66
2022-12-17T01:33:13.941Z,958.66
2022-12-17T01:34:14.214Z,958.65
2022-12-17T01:35:14.214Z,958.72
2022-12-17T01:36:13.944Z,958.68
2022-12-17T01:37:14.996Z,958.73
2022-12-17T01:38:13.695Z,958.71
2022-12-17T01:39:13.839Z,958.70
2022-12-17T01:40:13.999Z,958.75
2022-12-17T01:41:13.860Z,958.74
2022-12-17T01:42:14.004Z,958.68
2022-12-17T01:43:13.921Z,958.71
2022-12-17T01:44:13.737Z,958.75
2022-12-17T01:45:13.659Z,958.72
2022-12-17T01:46:13.636Z,958.73
2022-12-17T01:47:14.052Z,958.75
2022-12-17T01:48:14.732Z,958.74
2022-12-17T01:49:13.681Z,958.69
2022-12-17T01:50:13.643Z,958.68
2022-12-17T01:51:14.160Z,958.72
2022-12-17T01:52:13.599Z,958.72
2022-12-17T01:53:14.023Z,958.76
2022-12-17T01:54:13.671Z,958.69
2022-12-17T01:55:13.458Z,958.69
2022-12-17T01:56:13.665Z,958.72
2022-12-17T01:57:13.767Z,958.73
2022-12-17T01:58:13.745Z,958.74
2022-12-17T01:59:14.099Z,958.75
2022-12-17T02:00:13.682Z,958.70
2022-12-17T02:01:13.673Z,958.80
2022-12-17T02:02:13.613Z,958.81
2022-12-17T02:03:13.724Z,958.84
2022-12-17T02:04:13.612Z,958.86
2022-12-17T02:05:13.535Z,958.89
2022-12-17T02:06:13.485Z,958.88
2022-12-17T02:07:13.536Z,958.92
2022-12-17T02:08:14.659Z,958.90
2022-12-17T02:09:13.413Z,958.90
2022-12-17T02:10:13.835Z,958.91
2022-12-17T02:11:13.374Z,958.87
2022-12-17T02:12:13.915Z,958.89
2022-12-17T02:13:13.653Z,958.88
2022-12-17T02:14:14.820Z,958.88
2022-12-17T02:15:13.597Z,958.89
2022-12-17T02:16:13.551Z,958.92
2022-12-17T02:17:14.150Z,958.93
2022-12-17T02:18:13.233Z,958.92
2022-12-17T02:19:13.203Z,958.96
2022-12-17T02:20:13.292Z,958.93
2022-12-17T02:21:13.262Z,958.95
2022-12-17T02:22:13.095Z,958.95
2022-12-17T02:23:13.232Z,958.97
2022-12-17T02:24:13.266Z,958.95
2022-12-17T02:25:13.547Z,958.96
2022-12-17T02:26:13.253Z,958.95
2022-12-17T02:27:13.563Z,958.95
2022-12-17T02:28:12.996Z,958.94
2022-12-17T02:29:13.287Z,958.94
2022-12-17T02:30:13.575Z,958.93
2022-12-17T02:31:13.426Z,959.00
2022-12-17T02:32:13.379Z,958.99
2022-12-17T02:33:13.166Z,959.00
2022-12-17T02:34:13.000Z,958.96
2022-12-17T02:35:12.964Z,959.01
2022-12-17T02:36:14.257Z,958.99
2022-12-17T02:37:12.919Z,959.00
2022-12-17T02:38:15.118Z,958.97
2022-12-17T02:39:12.899Z,958.97
2022-12-17T02:40:13.036Z,958.98
2022-12-17T02:41:13.182Z,959.01
2022-12-17T02:42:13.568Z,959.02
2022-12-17T02:43:13.026Z,959.03
2022-12-17T02:44:12.896Z,959.04
2022-12-17T02:45:13.249Z,959.06
2022-12-17T02:46:13.362Z,959.08
2022-12-17T02:47:13.630Z,959.07
2022-12-17T02:48:12.964Z,959.11
2022-12-17T02:49:12.985Z,959.11
2022-12-17T02:50:13.552Z,959.08
2022-12-17T02:51:13.620Z,959.10
2022-12-17T02:52:12.760Z,959.18
2022-12-17T02:53:13.125Z,959.16
2022-12-17T02:54:13.084Z,959.15
2022-12-17T02:55:13.386Z,959.19
2022-12-17T02:56:14.204Z,959.18
2022-12-17T02:57:13.159Z,959.19
2022-12-17T02:58:12.772Z,959.15
2022-12-17T02:59:14.410Z,959.16
2022-12-17T03:00:13.660Z,959.14
2022-12-17T03:01:14.320Z,959.17
2022-12-17T03:02:12.942Z,959.16
2022-12-17T03:03:13.284Z,959.15
2022-12-17T03:04:12.800Z,959.18
2022-12-17T03:05:42.900Z,959.18
2022-12-17T03:06:13.904Z,959.16
2022-12-17T03:07:12.594Z,959.21
2022-12-17T03:08:12.405Z,959.21
2022-12-17T03:09:12.902Z,959.21
2022-12-17T03:10:12.402Z,959.20
2022-12-17T03:11:14.172Z,959.26
2022-12-17T03:12:12.999Z,959.17
2022-12-17T03:13:12.564Z,959.22
2022-12-17T03:14:12.629Z,959.23
2022-12-17T03:15:13.212Z,959.17
2022-12-17T03:16:12.945Z,959.17
2022-12-17T03:17:12.385Z,959.17
2022-12-17T03:18:12.457Z,959.18
2022-12-17T03:19:12.601Z,959.18
2022-12-17T03:20:13.186Z,959.21
2022-12-17T03:21:12.834Z,959.20
2022-12-17T03:22:12.746Z,959.18
2022-12-17T03:23:12.322Z,959.18
2022-12-17T03:24:12.597Z,959.27
2022-12-17T03:25:15.619Z,959.20
2022-12-17T03:26:13.121Z,959.17
2022-12-17T03:27:12.169Z,959.20
2022-12-17T03:28:12.106Z,959.23
2022-12-17T03:29:12.169Z,959.20
2022-12-17T03:30:12.936Z,959.24
2022-12-17T03:31:13.025Z,959.24
2022-12-17T03:32:12.078Z,959.26
2022-12-17T03:33:12.276Z,959.19
2022-12-17T03:34:12.979Z,959.25
2022-12-17T03:35:12.112Z,959.21
2022-12-17T03:36:13.527Z,959.25
2022-12-17T03:37:12.879Z,959.23
2022-12-17T03:38:12.105Z,959.24
2022-12-17T03:39:12.387Z,959.28
2022-12-17T03:40:12.309Z,959.24
2022-12-17T03:41:12.521Z,959.28
2022-12-17T03:42:12.374Z,959.28
2022-12-17T03:43:12.479Z,959.32
2022-12-17T03:44:11.904Z,959.27
2022-12-17T03:45:13.404Z,959.28
2022-12-17T03:46:11.991Z,959.30
2022-12-17T03:47:12.653Z,959.31
2022-12-17T03:48:13.383Z,959.30
2022-12-17T03:49:12.232Z,959.30
2022-12-17T03:50:12.046Z,959.33
2022-12-17T03:51:11.892Z,959.33
2022-12-17T03:52:12.732Z,959.36
2022-12-17T03:53:11.802Z,959.38
2022-12-17T03:54:12.190Z,959.37
2022-12-17T03:55:13.158Z,959.39
2022-12-17T03:56:12.094Z,959.38
2022-12-17T03:57:16.067Z,959.40
2022-12-17T03:58:12.399Z,959.39
2022-12-17T03:59:12.492Z,959.39
2022-12-17T04:00:13.396Z,959.44
2022-12-17T04:01:12.309Z,959.41
2022-12-17T04:02:12.727Z,959.43
2022-12-17T04:03:12.228Z,959.47
2022-12-17T04:04:11.923Z,959.43
2022-12-17T04:05:19.882Z,959.40
2022-12-17T04:06:13.108Z,959.47
2022-12-17T04:07:12.325Z,959.40
2022-12-17T04:08:12.091Z,959.45
2022-12-17T04:09:11.712Z,959.47
2022-12-17T04:10:13.882Z,959.50
2022-12-17T04:11:11.901Z,959.47
2022-12-17T04:12:12.111Z,959.47
2022-12-17T04:13:11.938Z,959.47
2022-12-17T04:14:11.894Z,959.46
2022-12-17T04:15:13.957Z,959.44
2022-12-17T04:16:12.473Z,959.48
2022-12-17T04:17:11.750Z,959.47
2022-12-17T04:18:11.957Z,959.47
2022-12-17T04:19:11.495Z,959.48
2022-12-17T04:20:15.365Z,959.50
2022-12-17T04:21:11.747Z,959.51
2022-12-17T04:22:11.465Z,959.52
2022-12-17T04:23:11.499Z,959.60
2022-12-17T04:24:12.238Z,959.58
2022-12-17T04:25:11.933Z,959.56
2022-12-17T04:26:11.520Z,959.57
2022-12-17T04:27:12.308Z,959.57
2022-12-17T04:28:12.354Z,959.55
2022-12-17T04:29:12.074Z,959.61
2022-12-17T04:30:12.464Z,959.59
2022-12-17T04:31:11.925Z,959.63
2022-12-17T04:32:11.527Z,959.63
2022-12-17T04:33:11.555Z,959.60
2022-12-17T04:34:12.137Z,959.59
2022-12-17T04:35:12.777Z,959.58
2022-12-17T04:36:11.732Z,959.56
2022-12-17T04:37:11.975Z,959.60
2022-12-17T04:38:11.411Z,959.61
2022-12-17T04:39:11.431Z,959.58
2022-12-17T04:40:13.603Z,959.62
2022-12-17T04:41:11.965Z,959.62
2022-12-17T04:42:11.496Z,959.60
2022-12-17T04:43:12.280Z,959.66
2022-12-17T04:44:11.113Z,959.68
2022-12-17T04:45:14.790Z,959.63
2022-12-17T04:46:11.231Z,959.65
2022-12-17T04:47:12.923Z,959.66
2022-12-17T04:48:11.193Z,959.67
2022-12-17T04:49:11.270Z,959.70
2022-12-17T04:50:11.124Z,959.71
2022-12-17T04:51:11.237Z,959.75
2022-12-17T04:52:12.331Z,959.70
2022-12-17T04:53:11.270Z,959.76
2022-12-17T04:54:12.599Z,959.73
2022-12-17T04:55:11.958Z,959.76
2022-12-17T04:56:12.466Z,959.75
2022-12-17T04:57:11.004Z,959.81
2022-12-17T04:58:11.920Z,959.82
2022-12-17T04:59:10.903Z,959.80
2022-12-17T05:00:11.771Z,959.90
2022-12-17T05:01:11.464Z,959.91
2022-12-17T05:02:15.713Z,959.89
2022-12-17T05:03:12.739Z,959.93
2022-12-17T05:04:10.931Z,959.91
2022-12-17T05:05:11.089Z,959.90
2022-12-17T05:06:11.149Z,959.94
2022-12-17T05:07:10.977Z,959.93
2022-12-17T05:08:11.752Z,959.92
2022-12-17T05:09:11.636Z,959.92
2022-12-17T05:10:11.582Z,959.92
2022-12-17T05:11:10.931Z,959.92
2022-12-17T05:12:11.597Z,959.92
2022-12-17T05:13:11.515Z,959.93
2022-12-17T05:14:11.069Z,959.95
2022-12-17T05:15:12.094Z,959.94
2022-12-17T05:16:12.053Z,960.01
2022-12-17T05:17:11.906Z,959.94
2022-12-17T05:18:11.096Z,960.00
2022-12-17T05:19:11.469Z,959.99
2022-12-17T05:20:11.199Z,960.04
2022-12-17T05:21:12.119Z,960.03
2022-12-17T05:22:10.655Z,960.04
2022-12-17T05:23:11.391Z,960.03
2022-12-17T05:24:11.937Z,960.05
2022-12-17T05:25:10.566Z,960.05
2022-12-17T05:26:13.185Z,960.07
2022-12-17T05:27:10.721Z,960.06
2022-12-17T05:28:11.258Z,960.07
2022-12-17T05:29:15.826Z,960.07
2022-12-17T05:30:10.821Z,960.14
2022-12-17T05:31:11.542Z,960.15
2022-12-17T05:32:10.473Z,960.08
2022-12-17T05:33:10.713Z,960.14
2022-12-17T05:34:11.352Z,960.17
2022-12-17T05:35:10.669Z,960.23
2022-12-17T05:36:10.802Z,960.17
2022-12-17T05:37:11.511Z,960.17
2022-12-17T05:38:10.741Z,960.16
2022-12-17T05:39:11.010Z,960.18
2022-12-17T05:40:12.749Z,960.13
2022-12-17T05:41:12.063Z,960.12
2022-12-17T05:42:12.080Z,960.13
2022-12-17T05:43:10.321Z,960.14
2022-12-17T05:44:11.196Z,960.14
2022-12-17T05:45:11.103Z,960.22
2022-12-17T05:46:10.911Z,960.17
2022-12-17T05:47:13.260Z,960.17
2022-12-17T05:48:11.207Z,960.15
2022-12-17T05:49:11.214Z,960.15
2022-12-17T05:50:11.563Z,960.18
2022-12-17T05:51:10.936Z,960.23
2022-12-17T05:52:10.871Z,960.22
2022-12-17T05:53:10.356Z,960.25
2022-12-17T05:54:12.165Z,960.23
2022-12-17T05:55:10.879Z,960.24
2022-12-17T05:56:11.159Z,960.29
2022-12-17T05:57:12.603Z,960.28
2022-12-17T05:58:12.421Z,960.32
2022-12-17T05:59:11.570Z,960.32
2022-12-17T06:00:10.862Z,960.31
2022-12-17T06:01:10.366Z,960.34
2022-12-17T06:02:12.216Z,960.36
2022-12-17T06:03:10.430Z,960.35
2022-12-17T06:04:10.426Z,960.41
2022-12-17T06:05:10.239Z,960.38
2022-12-17T06:06:11.532Z,960.35
2022-12-17T06:07:10.665Z,960.41
2022-12-17T06:08:10.216Z,960.38
2022-12-17T06:09:10.154Z,960.43
2022-12-17T06:10:10.888Z,960.44
2022-12-17T06:11:10.645Z,960.46
2022-12-17T06:12:11.018Z,960.48
2022-12-17T06:13:11.554Z,960.48
2022-12-17T06:14:10.130Z,960.56
2022-12-17T06:15:13.591Z,960.46
2022-12-17T06:16:10.291Z,960.54
2022-12-17T06:17:11.133Z,960.52
2022-12-17T06:18:13.675Z,960.56
2022-12-17T06:19:10.735Z,960.52
2022-12-17T06:20:11.384Z,960.52
2022-12-17T06:21:10.911Z,960.52
2022-12-17T06:22:12.843Z,960.50
2022-12-17T06:23:10.931Z,960.48
2022-12-17T06:24:10.195Z,960.50
2022-12-17T06:25:11.008Z,960.49
2022-12-17T06:26:10.289Z,960.49
2022-12-17T06:27:11.586Z,960.49
2022-12-17T06:28:10.972Z,960.49
2022-12-17T06:29:11.371Z,960.47
2022-12-17T06:30:18.357Z,960.48
2022-12-17T06:31:12.354Z,960.51
2022-12-17T06:32:11.173Z,960.52
2022-12-17T06:33:11.195Z,960.51
2022-12-17T06:34:11.255Z,960.57
2022-12-17T06:35:10.031Z,960.56
2022-12-17T06:36:10.884Z,960.50
2022-12-17T06:37:11.863Z,960.55
2022-12-17T06:38:12.450Z,960.56
2022-12-17T06:39:12.651Z,960.55
2022-12-17T06:40:10.351Z,960.59
2022-12-17T06:41:10.814Z,960.55
2022-12-17T06:42:10.788Z,960.56
2022-12-17T06:43:11.650Z,960.62
2022-12-17T06:44:13.122Z,960.62
2022-12-17T06:45:10.481Z,960.67
2022-12-17T06:46:11.542Z,960.67
2022-12-17T06:47:10.657Z,960.68
2022-12-17T06:48:09.943Z,960.70
2022-12-17T06:49:10.997Z,960.73
2022-12-17T06:50:10.037Z,960.74
2022-12-17T06:51:10.142Z,960.69
2022-12-17T06:52:10.433Z,960.71
2022-12-17T06:53:10.046Z,960.72
2022-12-17T06:54:09.961Z,960.76
2022-12-17T06:55:09.988Z,960.78
2022-12-17T06:56:10.996Z,960.78
2022-12-17T06:57:10.347Z,960.80
2022-12-17T06:58:11.031Z,960.76
2022-12-17T06:59:10.698Z,960.74
2022-12-17T07:00:10.732Z,960.81
2022-12-17T07:01:12.534Z,960.80
2022-12-17T07:02:10.880Z,960.86
2022-12-17T07:03:14.787Z,960.82
2022-12-17T07:04:10.431Z,960.88
2022-12-17T07:05:13.219Z,960.87
2022-12-17T07:06:10.135Z,960.88
2022-12-17T07:07:10.410Z,960.90
2022-12-17T07:08:09.215Z,960.92
2022-12-17T07:09:10.728Z,960.94
2022-12-17T07:10:13.889Z,960.94
2022-12-17T07:11:10.096Z,960.96
2022-12-17T07:12:10.100Z,961.00
2022-12-17T07:13:09.110Z,960.95
2022-12-17T07:14:09.195Z,960.95
2022-12-17T07:15:11.007Z,961.00
2022-12-17T07:16:09.234Z,961.02
2022-12-17T07:17:09.028Z,961.12
2022-12-17T07:18:09.765Z,961.10
2022-12-17T07:19:08.942Z,961.13
2022-12-17T07:20:08.951Z,961.17
2022-12-17T07:21:10.059Z,961.16
2022-12-17T07:22:09.056Z,961.13
2022-12-17T07:23:09.157Z,961.12
2022-12-17T07:24:09.122Z,961.17
2022-12-17T07:25:10.827Z,961.15
2022-12-17T07:26:09.300Z,961.13
2022-12-17T07:27:09.160Z,961.16
2022-12-17T07:28:15.542Z,961.19
2022-12-17T07:29:09.496Z,961.20
2022-12-17T07:30:09.017Z,961.16
2022-12-17T07:31:11.486Z,961.19
2022-12-17T07:32:12.251Z,961.20
2022-12-17T07:33:09.296Z,961.23
2022-12-17T07:34:09.043Z,961.26
2022-12-17T07:35:09.816Z,961.25
2022-12-17T07:36:08.741Z,961.28
2022-12-17T07:37:13.938Z,961.32
2022-12-17T07:38:10.691Z,961.32
2022-12-17T07:39:09.288Z,961.32
2022-12-17T07:40:08.896Z,961.33
2022-12-17T07:41:08.666Z,961.34
2022-12-17T07:42:12.959Z,961.31
2022-12-17T07:43:10.232Z,961.34
2022-12-17T07:44:10.745Z,961.38
2022-12-17T07:45:08.724Z,961.36
2022-12-17T07:46:08.759Z,961.35
2022-12-17T07:47:10.484Z,961.35
2022-12-17T07:48:08.771Z,961.37
2022-12-17T07:49:08.495Z,961.37
2022-12-17T07:50:09.092Z,961.38
2022-12-17T07:51:08.651Z,961.40
2022-12-17T07:52:08.595Z,961.38
2022-12-17T07:53:10.468Z,961.43
2022-12-17T07:54:08.844Z,961.45
2022-12-17T07:55:08.405Z,961.43
2022-12-17T07:56:14.838Z,961.40
2022-12-17T07:57:12.578Z,961.44
2022-12-17T07:58:08.780Z,961.45
2022-12-17T07:59:08.368Z,961.46
2022-12-17T08:00:10.088Z,961.47
2022-12-17T08:01:10.984Z,961.47
2022-12-17T08:02:08.995Z,961.49
2022-12-17T08:03:08.378Z,961.47
2022-12-17T08:04:10.213Z,961.53
2022-12-17T08:05:08.359Z,961.54
2022-12-17T08:06:08.660Z,961.55
2022-12-17T08:07:12.134Z,961.55
2022-12-17T08:08:10.959Z,961.56
2022-12-17T08:09:08.359Z,961.58
2022-12-17T08:10:08.974Z,961.58
2022-12-17T08:11:11.934Z,961.64
2022-12-17T08:12:08.747Z,961.63
2022-12-17T08:13:14.038Z,961.68
2022-12-17T08:14:10.268Z,961.73
2022-12-17T08:15:08.476Z,961.70
2022-12-17T08:16:08.827Z,961.73
2022-12-17T08:17:08.166Z,961.74
2022-12-17T08:18:09.590Z,961.76
2022-12-17T08:19:08.175Z,961.83
2022-12-17T08:20:08.225Z,961.84
2022-12-17T08:21:08.541Z,961.87
2022-12-17T08:22:08.444Z,961.87
2022-12-17T08:23:08.013Z,961.94
2022-12-17T08:24:08.023Z,961.94
2022-12-17T08:25:07.990Z,961.99
2022-12-17T08:26:08.274Z,962.01
2022-12-17T08:27:08.313Z,962.02
2022-12-17T08:28:15.689Z,962.09
2022-12-17T08:29:12.552Z,962.06
2022-12-17T08:30:08.060Z,962.09
2022-12-17T08:31:10.333Z,962.14
2022-12-17T08:32:08.061Z,962.13
2022-12-17T08:33:07.963Z,962.15
2022-12-17T08:34:08.338Z,962.17
2022-12-17T08:35:09.018Z,962.22
2022-12-17T08:36:07.841Z,962.15
2022-12-17T08:37:08.730Z,962.21
2022-12-17T08:38:08.330Z,962.23
2022-12-17T08:39:08.042Z,962.22
2022-12-17T08:40:09.498Z,962.24
2022-12-17T08:41:08.511Z,962.30
2022-12-17T08:42:08.854Z,962.30
2022-12-17T08:43:07.701Z,962.29
2022-12-17T08:44:09.001Z,962.31
2022-12-17T08:45:09.098Z,962.35
2022-12-17T08:46:08.955Z,962.32
2022-12-17T08:47:07.708Z,962.32
2022-12-17T08:48:07.671Z,962.37
2022-12-17T08:49:07.737Z,962.40
2022-12-17T08:50:08.360Z,962.43
2022-12-17T08:51:08.700Z,962.41
2022-12-17T08:52:07.808Z,962.44
2022-12-17T08:53:07.572Z,962.44
2022-12-17T08:54:07.792Z,962.47
2022-12-17T08:55:07.587Z,962.46
2022-12-17T08:56:09.237Z,962.49
2022-12-17T08:57:08.780Z,962.43
2022-12-17T08:58:09.945Z,962.46
2022-12-17T08:59:07.559Z,962.49
2022-12-17T09:00:08.148Z,962.48
2022-12-17T09:01:10.595Z,962.51
2022-12-17T09:02:07.801Z,962.53
2022-12-17T09:03:07.834Z,962.54
2022-12-17T09:04:08.908Z,962.56
2022-12-17T09:05:08.146Z,962.56
2022-12-17T09:06:08.752Z,962.58
2022-12-17T09:07:09.684Z,962.59
2022-12-17T09:08:08.932Z,962.66
2022-12-17T09:09:07.935Z,962.72
2022-12-17T09:10:09.437Z,962.66
2022-12-17T09:11:13.767Z,962.64
2022-12-17T09:12:08.530Z,962.65
2022-12-17T09:13:08.746Z,962.67
2022-12-17T09:14:07.953Z,962.63
2022-12-17T09:15:08.371Z,962.68
2022-12-17T09:16:08.044Z,962.67
2022-12-17T09:17:08.281Z,962.65
2022-12-17T09:18:07.244Z,962.67
2022-12-17T09:19:07.519Z,962.61
2022-12-17T09:20:09.186Z,962.65
2022-12-17T09:21:07.918Z,962.60
2022-12-17T09:22:08.092Z,962.59
2022-12-17T09:23:07.214Z,962.59
2022-12-17T09:24:07.937Z,962.58
2022-12-17T09:25:08.070Z,962.58
2022-12-17T09:26:14.497Z,962.63
2022-12-17T09:27:08.666Z,962.64
2022-12-17T09:28:07.424Z,962.68
2022-12-17T09:29:07.663Z,962.65
2022-12-17T09:30:07.208Z,962.76
2022-12-17T09:31:07.925Z,962.70
2022-12-17T09:32:08.184Z,962.70
2022-12-17T09:33:07.792Z,962.72
2022-12-17T09:34:07.504Z,962.68
2022-12-17T09:35:07.316Z,962.66
2022-12-17T09:36:08.822Z,962.66
2022-12-17T09:37:12.317Z,962.64
2022-12-17T09:38:08.093Z,962.64
2022-12-17T09:39:08.205Z,962.65
2022-12-17T09:40:08.917Z,962.61
2022-12-17T09:41:07.691Z,962.66
2022-12-17T09:42:08.281Z,962.65
2022-12-17T09:43:07.635Z,962.64
2022-12-17T09:44:07.219Z,962.68
2022-12-17T09:45:07.412Z,962.70
2022-12-17T09:46:07.088Z,962.71
2022-12-17T09:47:08.611Z,962.70
2022-12-17T09:48:07.595Z,962.78
2022-12-17T09:49:07.566Z,962.71
2022-12-17T09:50:06.957Z,962.70
2022-12-17T09:51:07.099Z,962.68
2022-12-17T09:52:07.524Z,962.69
2022-12-17T09:53:06.988Z,962.64
2022-12-17T09:54:07.279Z,962.62
2022-12-17T09:55:07.254Z,962.65
2022-12-17T09:56:07.449Z,962.68
2022-12-17T09:57:08.266Z,962.71
2022-12-17T09:58:07.622Z,962.64
2022-12-17T09:59:06.926Z,962.64
2022-12-17T10:00:07.792Z,962.67
2022-12-17T10:01:07.979Z,962.60
2022-12-17T10:02:07.745Z,962.55
2022-12-17T10:03:07.196Z,962.55
2022-12-17T10:04:07.521Z,962.56
2022-12-17T10:05:07.038Z,962.53
2022-12-17T10:06:07.577Z,962.58
2022-12-17T10:07:06.829Z,962.57
2022-12-17T10:08:06.710Z,962.57
2022-12-17T10:09:08.252Z,962.55
2022-12-17T10:10:06.903Z,962.56
2022-12-17T10:11:06.816Z,962.54
2022-12-17T10:12:07.309Z,962.55
2022-12-17T10:13:06.846Z,962.61
2022-12-17T10:14:07.037Z,962.58
2022-12-17T10:15:08.272Z,962.59
2022-12-17T10:16:06.873Z,962.65
2022-12-17T10:17:11.939Z,962.66
2022-12-17T10:18:07.609Z,962.63
2022-12-17T10:19:07.963Z,962.63
2022-12-17T10:20:07.225Z,962.62
2022-12-17T10:21:07.042Z,962.63
2022-12-17T10:22:07.299Z,962.62
2022-12-17T10:23:07.449Z,962.60
2022-12-17T10:24:06.903Z,962.59
2022-12-17T10:25:07.193Z,962.58
2022-12-17T10:26:06.871Z,962.59
2022-12-17T10:27:06.693Z,962.58
2022-12-17T10:28:07.204Z,962.59
2022-12-17T10:29:08.176Z,962.56
2022-12-17T10:30:07.583Z,962.62
2022-12-17T10:31:07.000Z,962.62
2022-12-17T10:32:07.040Z,962.61
2022-12-17T10:33:07.275Z,962.57
2022-12-17T10:34:07.552Z,962.59
2022-12-17T10:35:07.916Z,962.64
2022-12-17T10:36:07.594Z,962.62
2022-12-17T10:37:07.405Z,962.71
2022-12-17T10:38:07.047Z,962.64
2022-12-17T10:39:07.126Z,962.70
2022-12-17T10:40:07.497Z,962.64
2022-12-17T10:41:07.348Z,962.61
2022-12-17T10:42:07.858Z,962.60
2022-12-17T10:43:07.347Z,962.61
2022-12-17T10:44:07.911Z,962.67
2022-12-17T10:45:07.534Z,962.64
2022-12-17T10:46:06.786Z,962.66
2022-12-17T10:47:08.208Z,962.64
2022-12-17T10:48:07.503Z,962.64
2022-12-17T10:49:11.244Z,962.64
2022-12-17T10:50:08.003Z,962.67
2022-12-17T10:51:07.866Z,962.63
2022-12-17T10:52:07.127Z,962.57
2022-12-17T10:53:07.116Z,962.57
2022-12-17T10:54:06.939Z,962.54
2022-12-17T10:55:07.914Z,962.53
2022-12-17T10:56:08.281Z,962.54
2022-12-17T10:57:06.613Z,962.53
2022-12-17T10:58:07.920Z,962.58
2022-12-17T10:59:07.977Z,962.56
2022-12-17T11:00:07.422Z,962.55
2022-12-17T11:01:08.250Z,962.57
2022-12-17T11:02:08.384Z,962.58
2022-12-17T11:03:08.463Z,962.56
2022-12-17T11:04:07.218Z,962.63
2022-12-17T11:05:07.906Z,962.64
2022-12-17T11:06:07.410Z,962.69
2022-12-17T11:07:07.251Z,962.71
2022-12-17T11:08:08.810Z,962.66
2022-12-17T11:09:07.202Z,962.73
2022-12-17T11:10:09.463Z,962.69
2022-12-17T11:11:07.819Z,962.69
2022-12-17T11:12:07.575Z,962.70
2022-12-17T11:13:08.085Z,962.70
2022-12-17T11:14:07.404Z,962.66
2022-12-17T11:15:07.488Z,962.69
2022-12-17T11:16:06.607Z,962.69
2022-12-17T11:17:06.493Z,962.68
2022-12-17T11:18:11.312Z,962.67
2022-12-17T11:19:08.529Z,962.69
2022-12-17T11:20:05.537Z,962.69
2022-12-17T11:21:07.465Z,962.70
2022-12-17T11:22:07.524Z,962.67
2022-12-17T11:23:08.221Z,962.71
2022-12-17T11:24:07.027Z,962.71
2022-12-17T11:25:06.643Z,962.69
2022-12-17T11:26:07.212Z,962.68
2022-12-17T11:27:07.967Z,962.71
2022-12-17T11:28:07.239Z,962.72
2022-12-17T11:29:06.830Z,962.74
2022-12-17T11:30:07.451Z,962.76
2022-12-17T11:31:07.321Z,962.78
2022-12-17T11:32:07.410Z,962.79
2022-12-17T11:33:06.871Z,962.78
2022-12-17T11:34:06.750Z,962.80
2022-12-17T11:35:07.511Z,962.77
2022-12-17T11:36:06.770Z,962.78
2022-12-17T11:37:07.585Z,962.76
2022-12-17T11:38:06.830Z,962.77
2022-12-17T11:39:07.520Z,962.79
2022-12-17T11:40:09.190Z,962.73
2022-12-17T11:41:07.854Z,962.82
2022-12-17T11:42:11.206Z,962.78
2022-12-17T11:43:08.144Z,962.81
2022-12-17T11:44:07.838Z,962.82
2022-12-17T11:45:08.184Z,962.82
2022-12-17T11:46:05.451Z,962.83
2022-12-17T11:47:08.058Z,962.85
2022-12-17T11:48:08.125Z,962.82
2022-12-17T11:49:07.178Z,962.75
2022-12-17T11:50:05.178Z,962.78
2022-12-17T11:51:05.209Z,962.73
2022-12-17T11:52:05.089Z,962.68
2022-12-17T11:53:07.675Z,962.67
2022-12-17T11:54:05.075Z,962.66
2022-12-17T11:55:05.073Z,962.67
2022-12-17T11:56:07.508Z,962.67
2022-12-17T11:57:07.836Z,962.65
2022-12-17T11:58:07.061Z,962.70
2022-12-17T11:59:05.061Z,962.68
2022-12-17T12:00:06.044Z,962.71
2022-12-17T12:01:07.334Z,962.78
2022-12-17T12:02:06.878Z,962.78
2022-12-17T12:03:08.133Z,962.79
2022-12-17T12:04:05.091Z,962.79
2022-12-17T12:05:05.447Z,962.80
2022-12-17T12:06:05.976Z,962.80
2022-12-17T12:07:06.878Z,962.78
2022-12-17T12:08:05.056Z,962.84
2022-12-17T12:09:10.120Z,962.82
2022-12-17T12:10:04.872Z,962.84
2022-12-17T12:11:05.014Z,962.82
2022-12-17T12:12:05.241Z,962.82
2022-12-17T12:13:07.931Z,962.85
2022-12-17T12:14:04.809Z,962.82
2022-12-17T12:15:04.856Z,962.75
2022-12-17T12:16:04.804Z,962.72
2022-12-17T12:17:04.774Z,962.76
2022-12-17T12:18:07.996Z,962.72
2022-12-17T12:19:05.043Z,962.72
2022-12-17T12:20:04.722Z,962.76
2022-12-17T12:21:04.754Z,962.74
2022-12-17T12:22:04.754Z,962.72
2022-12-17T12:23:04.944Z,962.71
2022-12-17T12:24:05.212Z,962.70
2022-12-17T12:25:07.822Z,962.71
2022-12-17T12:26:04.734Z,962.70
2022-12-17T12:27:06.126Z,962.69
2022-12-17T12:28:07.183Z,962.75